createdAt,value
2023-02-09T00:00:13.891Z,7.60
2023-02-09T00:02:44.118Z,8.70
2023-02-09T00:05:12.807Z,8.55
2023-02-09T00:07:41.207Z,9.07
2023-02-09T00:10:10.395Z,7.82
2023-02-09T00:12:56.244Z,8.20
2023-02-09T00:15:25.067Z,9.40
2023-02-09T00:17:54.790Z,8.68
2023-02-09T00:20:23.238Z,8.95
2023-02-09T00:22:51.654Z,7.93
2023-02-09T00:25:20.212Z,7.45
2023-02-09T00:27:48.853Z,8.20
2023-02-09T00:30:17.300Z,8.82
2023-02-09T00:32:45.863Z,8.77
2023-02-09T00:35:15.711Z,8.13
2023-02-09T00:37:44.142Z,7.90
2023-02-09T00:40:13.245Z,8.15
2023-02-09T00:42:41.669Z,9.05
2023-02-09T00:45:10.716Z,8.52
2023-02-09T00:47:39.188Z,8.50
2023-02-09T00:50:08.478Z,7.90
2023-02-09T00:52:38.404Z,8.38
2023-02-09T00:55:07.421Z,8.02
2023-02-09T00:57:36.109Z,8.50
2023-02-09T01:00:05.068Z,7.65
2023-02-09T01:02:33.497Z,7.97
2023-02-09T01:05:02.284Z,7.75
2023-02-09T01:07:30.746Z,8.18
2023-02-09T01:10:02.909Z,8.70
2023-02-09T01:12:32.542Z,7.13
2023-02-09T01:15:01.848Z,8.35
2023-02-09T01:17:30.321Z,7.95
2023-02-09T01:19:58.752Z,8.68
2023-02-09T01:22:27.314Z,7.72
2023-02-09T01:24:56.172Z,8.32
2023-02-09T01:27:25.964Z,8.13
2023-02-09T01:29:54.730Z,8.35
2023-02-09T01:32:23.117Z,8.60
2023-02-09T01:34:51.840Z,8.13
2023-02-09T01:37:20.660Z,8.07
2023-02-09T01:39:49.263Z,8.95
2023-02-09T01:42:20.609Z,8.77
2023-02-09T01:45:08.673Z,8.18
2023-02-09T01:47:43.261Z,8.30
2023-02-09T01:50:12.752Z,8.02
2023-02-09T01:52:42.017Z,8.45
2023-02-09T01:55:13.885Z,9.32
2023-02-09T01:57:46.731Z,8.57
2023-02-09T02:00:19.058Z,8.88
2023-02-09T02:02:50.722Z,7.95
2023-02-09T02:05:20.754Z,9.13
2023-02-09T02:07:55.481Z,8.55
2023-02-09T02:10:24.746Z,8.40
2023-02-09T02:12:55.000Z,8.13
2023-02-09T02:15:28.399Z,8.05
2023-02-09T02:18:14.280Z,9.02
2023-02-09T02:21:05.850Z,10.02
2023-02-09T02:23:44.364Z,8.80
2023-02-09T02:26:45.001Z,8.77
2023-02-09T02:29:48.566Z,10.35
2023-02-09T02:32:25.544Z,9.38
2023-02-09T02:35:00.304Z,9.25
2023-02-09T02:37:50.540Z,9.85
2023-02-09T02:40:29.176Z,8.65
2023-02-09T02:45:41.177Z,9.65
2023-02-09T02:48:31.014Z,7.95
2023-02-09T02:51:03.909Z,9.38
2023-02-09T02:53:36.364Z,9.13
2023-02-09T02:56:10.606Z,9.05
2023-02-09T02:58:41.803Z,8.88
2023-02-09T03:01:15.501Z,9.18
2023-02-09T03:03:47.392Z,8.95
2023-02-09T03:06:17.053Z,10.50
2023-02-09T03:08:51.085Z,9.30
2023-02-09T03:11:21.526Z,9.68
2023-02-09T03:14:06.014Z,9.60
2023-02-09T03:16:41.198Z,9.57
2023-02-09T03:19:22.925Z,8.30
2023-02-09T03:21:57.921Z,9.73
2023-02-09T03:24:41.034Z,8.50
2023-02-09T03:27:16.411Z,9.02
2023-02-09T03:29:47.240Z,7.95
2023-02-09T03:32:17.029Z,9.85
2023-02-09T03:34:47.303Z,9.45
2023-02-09T03:37:16.023Z,9.77
2023-02-09T03:39:44.506Z,8.73
2023-02-09T03:42:13.080Z,9.50
2023-02-09T03:44:41.577Z,10.73
2023-02-09T03:47:11.044Z,9.50
2023-02-09T03:49:42.146Z,9.07
2023-02-09T03:52:14.204Z,9.15
2023-02-09T03:54:43.275Z,9.18
2023-02-09T03:57:12.061Z,9.45
2023-02-09T03:59:40.532Z,8.65
2023-02-09T04:02:10.581Z,9.68
2023-02-09T04:04:39.068Z,9.98
2023-02-09T04:07:07.689Z,9.77
2023-02-09T04:09:38.253Z,9.90
2023-02-09T04:12:07.472Z,9.43
2023-02-09T04:14:35.917Z,10.38
2023-02-09T04:17:04.316Z,10.05
2023-02-09T04:19:33.048Z,10.43
2023-02-09T04:22:01.945Z,9.40
2023-02-09T04:24:30.485Z,9.55
2023-02-09T04:27:00.360Z,10.18
2023-02-09T04:29:28.910Z,8.05
2023-02-09T04:31:57.426Z,8.75
2023-02-09T04:34:25.947Z,9.32
2023-02-09T04:36:54.450Z,10.02
2023-02-09T04:39:22.954Z,9.82
2023-02-09T04:41:51.398Z,10.13
2023-02-09T04:44:21.147Z,9.57
2023-02-09T04:46:49.492Z,9.57
2023-02-09T04:49:18.107Z,9.88
2023-02-09T04:51:46.444Z,10.50
2023-02-09T04:54:14.887Z,10.10
2023-02-09T04:56:43.280Z,9.90
2023-02-09T04:59:25.698Z,11.02
2023-02-09T05:01:55.630Z,9.50
2023-02-09T05:04:24.037Z,9.35
2023-02-09T05:06:52.437Z,10.50
2023-02-09T05:09:20.834Z,9.40
2023-02-09T05:11:49.154Z,10.57
2023-02-09T05:14:17.669Z,10.35
2023-02-09T05:16:46.085Z,9.85
2023-02-09T05:19:15.819Z,9.50
2023-02-09T05:21:44.300Z,10.07
2023-02-09T05:24:15.673Z,10.15
2023-02-09T05:26:44.034Z,10.50
2023-02-09T05:29:12.459Z,10.57
2023-02-09T05:31:40.947Z,9.43
2023-02-09T05:34:09.766Z,11.40
2023-02-09T05:36:39.696Z,10.02
2023-02-09T05:39:08.382Z,10.63
2023-02-09T05:41:54.211Z,11.15
2023-02-09T05:44:22.809Z,11.15
2023-02-09T05:46:51.197Z,11.00
2023-02-09T05:49:19.818Z,11.73
2023-02-09T05:51:49.948Z,9.55
2023-02-09T05:54:18.936Z,10.63
2023-02-09T05:56:47.887Z,11.00
2023-02-09T05:59:16.322Z,11.30
2023-02-09T06:01:44.952Z,13.75
2023-02-09T06:04:13.692Z,11.75
2023-02-09T06:06:42.112Z,10.82
2023-02-09T06:09:13.447Z,11.27
2023-02-09T06:11:42.182Z,10.75
2023-02-09T06:14:11.022Z,11.68
2023-02-09T06:16:40.701Z,11.35
2023-02-09T06:19:12.714Z,12.82
2023-02-09T06:21:41.365Z,12.52
2023-02-09T06:24:09.813Z,11.93
2023-02-09T06:26:40.892Z,13.02
2023-02-09T06:29:09.770Z,11.85
2023-02-09T06:31:38.727Z,11.90
2023-02-09T06:34:07.256Z,12.52
2023-02-09T06:36:35.663Z,12.75
2023-02-09T06:39:08.121Z,13.35
2023-02-09T06:41:37.375Z,12.63
2023-02-09T06:44:07.290Z,11.60
2023-02-09T06:46:35.929Z,14.45
2023-02-09T06:49:04.968Z,11.73
2023-02-09T06:51:33.421Z,12.10
2023-02-09T06:54:02.072Z,14.57
2023-02-09T06:56:30.463Z,13.27
2023-02-09T06:58:58.835Z,12.85
2023-02-09T07:01:28.709Z,13.13
2023-02-09T07:03:57.171Z,12.85
2023-02-09T07:06:26.080Z,12.13
2023-02-09T07:08:54.537Z,11.60
2023-02-09T07:11:22.915Z,13.77
2023-02-09T07:13:51.258Z,13.00
2023-02-09T07:16:19.935Z,12.88
2023-02-09T07:18:50.143Z,13.50
2023-02-09T07:21:23.529Z,13.35
2023-02-09T07:23:53.209Z,13.30
2023-02-09T07:26:21.525Z,12.38
2023-02-09T07:28:50.070Z,10.95
2023-02-09T07:31:18.783Z,14.38
2023-02-09T07:33:47.798Z,12.90
2023-02-09T07:36:17.836Z,13.50
2023-02-09T07:38:46.702Z,13.25
2023-02-09T07:41:18.800Z,12.70
2023-02-09T07:43:48.971Z,13.60
2023-02-09T07:46:19.698Z,13.02
2023-02-09T07:48:49.296Z,15.07
2023-02-09T07:51:20.846Z,13.10
2023-02-09T07:53:49.382Z,13.60
2023-02-09T07:56:18.153Z,12.85
2023-02-09T07:58:46.685Z,13.57
2023-02-09T08:01:15.245Z,14.02
2023-02-09T08:03:48.870Z,14.07
2023-02-09T08:06:30.370Z,14.25
2023-02-09T08:09:06.186Z,14.25
2023-02-09T08:11:40.502Z,15.30
2023-02-09T08:14:14.638Z,14.30
2023-02-09T08:16:43.577Z,13.38
2023-02-09T08:19:16.569Z,14.60
2023-02-09T08:21:49.508Z,13.80
2023-02-09T08:24:21.361Z,13.10
2023-02-09T08:26:50.300Z,13.52
2023-02-09T08:29:19.887Z,12.93
2023-02-09T08:31:48.292Z,12.77
2023-02-09T08:34:16.678Z,13.70
2023-02-09T08:36:45.419Z,13.15
2023-02-09T08:39:15.206Z,12.77
2023-02-09T08:41:46.380Z,11.88
2023-02-09T08:44:15.157Z,13.50
2023-02-09T08:46:43.687Z,13.48
2023-02-09T08:49:13.028Z,12.13
2023-02-09T08:51:41.381Z,12.32
2023-02-09T08:54:09.969Z,12.63
2023-02-09T08:56:39.907Z,13.48
2023-02-09T08:59:08.291Z,12.98
2023-02-09T09:01:36.689Z,12.70
2023-02-09T09:04:05.220Z,13.65
2023-02-09T09:06:35.005Z,13.38
2023-02-09T09:09:03.430Z,13.55
2023-02-09T09:11:32.901Z,14.38
2023-02-09T09:14:02.691Z,13.27
2023-02-09T09:16:31.170Z,14.05
2023-02-09T09:18:59.987Z,13.15
2023-02-09T09:21:28.486Z,14.30
2023-02-09T09:23:56.821Z,12.75
2023-02-09T09:26:25.246Z,12.85
2023-02-09T09:28:53.609Z,12.57
2023-02-09T09:31:24.181Z,13.05
2023-02-09T09:33:52.739Z,12.57
2023-02-09T09:36:21.194Z,12.73
2023-02-09T09:38:49.721Z,12.70
2023-02-09T09:41:22.197Z,13.32
2023-02-09T09:43:51.857Z,12.85
2023-02-09T09:46:25.161Z,12.40
2023-02-09T09:48:57.176Z,12.77
2023-02-09T09:51:39.153Z,13.13
2023-02-09T09:54:14.011Z,12.60
2023-02-09T09:56:42.847Z,12.85
2023-02-09T09:59:17.623Z,13.73
2023-02-09T10:01:48.672Z,12.30
2023-02-09T10:04:17.424Z,12.07
2023-02-09T10:06:47.736Z,13.38
2023-02-09T10:09:27.557Z,11.20
2023-02-09T10:12:05.261Z,12.68
2023-02-09T10:14:33.977Z,13.65
2023-02-09T10:17:03.803Z,12.68
2023-02-09T10:19:32.764Z,11.90
2023-02-09T10:22:01.272Z,12.02
2023-02-09T10:24:31.736Z,13.07
2023-02-09T10:27:07.778Z,11.30
2023-02-09T10:29:36.732Z,11.95
2023-02-09T10:32:15.449Z,11.27
2023-02-09T10:34:47.362Z,11.65
2023-02-09T10:37:21.117Z,11.70
2023-02-09T10:39:57.056Z,11.38
2023-02-09T10:42:30.537Z,11.32
2023-02-09T10:45:07.187Z,11.13
2023-02-09T10:47:37.143Z,10.23
2023-02-09T10:50:18.158Z,11.55
2023-02-09T10:52:57.598Z,10.52
2023-02-09T10:55:33.804Z,11.18
2023-02-09T10:58:11.989Z,10.80
2023-02-09T11:00:49.356Z,12.10
2023-02-09T11:03:21.694Z,11.27
2023-02-09T11:05:59.827Z,10.95
2023-02-09T11:08:46.012Z,11.00
2023-02-09T11:11:26.933Z,10.40
2023-02-09T11:13:55.970Z,10.18
2023-02-09T11:16:45.398Z,10.32
2023-02-09T11:19:28.365Z,9.82
2023-02-09T11:22:12.857Z,10.30
2023-02-09T11:24:57.332Z,10.82
2023-02-09T11:27:58.538Z,10.98
2023-02-09T11:30:41.564Z,10.35
2023-02-09T11:33:17.538Z,9.85
2023-02-09T11:35:56.055Z,10.30
2023-02-09T11:38:36.412Z,10.63
2023-02-09T11:41:31.378Z,10.82
2023-02-09T11:44:03.272Z,9.85
2023-02-09T11:46:35.446Z,10.50
2023-02-09T11:49:12.901Z,10.10
2023-02-09T11:51:47.991Z,10.55
2023-02-09T11:54:21.654Z,8.98
2023-02-09T11:56:53.360Z,10.77
2023-02-09T11:59:28.513Z,9.27
2023-02-09T12:02:05.430Z,9.70
2023-02-09T12:04:44.641Z,10.32
2023-02-09T12:07:21.782Z,10.40
2023-02-09T12:09:55.808Z,9.85
2023-02-09T12:12:31.140Z,8.82
2023-02-09T12:15:14.345Z,9.88
2023-02-09T12:17:49.157Z,10.00
2023-02-09T12:20:30.149Z,10.40
2023-02-09T12:23:07.868Z,10.52
2023-02-09T12:25:52.017Z,10.33
2023-02-09T12:28:40.117Z,9.98
2023-02-09T12:31:13.248Z,10.52
2023-02-09T12:34:12.423Z,9.73
2023-02-09T12:37:03.464Z,10.15
2023-02-09T12:39:34.960Z,10.52
2023-02-09T12:42:29.135Z,10.85
2023-02-09T12:45:00.548Z,11.02
2023-02-09T12:47:58.417Z,10.38
2023-02-09T12:50:52.443Z,10.00
2023-02-09T12:53:41.801Z,11.73
2023-02-09T12:56:34.577Z,11.52
2023-02-09T12:59:23.680Z,11.38
2023-02-09T13:02:25.933Z,10.63
2023-02-09T13:05:04.197Z,10.75
2023-02-09T13:07:44.427Z,10.23
2023-02-09T13:10:24.379Z,10.07
2023-02-09T13:12:59.849Z,10.40
2023-02-09T13:15:45.243Z,10.82
2023-02-09T13:18:21.135Z,9.90
2023-02-09T13:21:13.029Z,10.65
2023-02-09T13:23:56.063Z,10.40
2023-02-09T13:26:27.484Z,10.43
2023-02-09T13:29:20.982Z,9.57
2023-02-09T13:32:06.017Z,9.77
2023-02-09T13:34:39.293Z,11.88
2023-02-09T13:37:21.953Z,10.63
2023-02-09T13:39:57.357Z,10.98
2023-02-09T13:42:28.566Z,9.80
2023-02-09T13:45:00.219Z,10.68
2023-02-09T13:47:30.209Z,9.95
2023-02-09T13:50:00.878Z,11.15
2023-02-09T13:52:36.300Z,11.27
2023-02-09T13:55:13.111Z,10.30
2023-02-09T13:57:44.422Z,9.98
2023-02-09T14:00:24.671Z,9.43
2023-02-09T14:02:56.512Z,11.02
2023-02-09T14:05:35.124Z,10.65
2023-02-09T14:08:04.857Z,11.15
2023-02-09T14:10:35.313Z,10.88
2023-02-09T14:13:07.604Z,10.43
2023-02-09T14:15:57.661Z,11.18
2023-02-09T14:18:32.718Z,9.75
2023-02-09T14:21:05.317Z,11.05
2023-02-09T14:23:35.086Z,11.55
2023-02-09T14:26:05.684Z,12.20
2023-02-09T14:28:35.726Z,11.90
2023-02-09T14:31:08.300Z,11.35
2023-02-09T14:33:38.437Z,11.35
2023-02-09T14:36:07.623Z,11.02
2023-02-09T14:38:38.660Z,10.85
2023-02-09T14:41:28.137Z,11.07
2023-02-09T14:46:47.778Z,11.07
2023-02-09T14:49:16.970Z,11.27
2023-02-09T14:51:45.843Z,11.45
2023-02-09T14:54:24.056Z,11.25
2023-02-09T14:56:54.176Z,12.57
2023-02-09T14:59:23.883Z,10.82
2023-02-09T15:01:57.390Z,12.25
2023-02-09T15:04:26.501Z,11.57
2023-02-09T15:07:02.951Z,11.35
2023-02-09T15:09:36.654Z,11.43
2023-02-09T15:12:06.718Z,10.65
2023-02-09T15:14:42.686Z,10.85
2023-02-09T15:17:16.985Z,10.60
2023-02-09T15:19:46.341Z,10.68
2023-02-09T15:22:17.130Z,10.93
2023-02-09T15:24:48.382Z,11.40
2023-02-09T15:27:25.000Z,12.45
2023-02-09T15:29:53.794Z,12.68
2023-02-09T15:32:25.008Z,11.90
2023-02-09T15:34:54.174Z,10.70
2023-02-09T15:37:25.310Z,11.43
2023-02-09T15:39:57.155Z,11.05
2023-02-09T15:42:43.244Z,10.90
2023-02-09T15:45:33.884Z,10.52
2023-02-09T15:48:04.973Z,10.98
2023-02-09T15:50:35.066Z,11.40
2023-02-09T15:53:05.522Z,9.68
2023-02-09T15:55:35.378Z,10.68
2023-02-09T15:58:05.196Z,11.07
2023-02-09T16:00:33.640Z,10.75
2023-02-09T16:03:14.799Z,10.20
2023-02-09T16:05:43.975Z,9.70
2023-02-09T16:08:19.100Z,11.05
2023-02-09T16:10:48.927Z,10.75
2023-02-09T16:13:19.450Z,10.55
2023-02-09T16:15:48.566Z,11.55
2023-02-09T16:18:18.726Z,10.70
2023-02-09T16:20:50.766Z,9.75
2023-02-09T16:23:23.004Z,12.25
2023-02-09T16:25:53.293Z,10.95
2023-02-09T16:28:22.894Z,10.73
2023-02-09T16:30:54.164Z,10.43
2023-02-09T16:33:25.988Z,11.55
2023-02-09T16:36:03.952Z,11.90
2023-02-09T16:38:32.673Z,10.50
2023-02-09T16:41:01.086Z,11.50
2023-02-09T16:43:29.597Z,10.63
2023-02-09T16:46:03.823Z,10.98
2023-02-09T16:48:35.412Z,11.48
2023-02-09T16:51:03.908Z,11.38
2023-02-09T16:53:36.065Z,11.57
2023-02-09T16:56:10.095Z,10.55
2023-02-09T16:58:39.520Z,10.40
2023-02-09T17:01:13.977Z,13.77
2023-02-09T17:03:46.781Z,11.52
2023-02-09T17:06:21.277Z,11.38
2023-02-09T17:08:50.021Z,12.05
2023-02-09T17:11:20.508Z,11.45
2023-02-09T17:13:49.425Z,12.35
2023-02-09T17:16:20.785Z,11.95
2023-02-09T17:18:53.311Z,12.75
2023-02-09T17:21:24.619Z,11.85
2023-02-09T17:23:53.785Z,10.77
2023-02-09T17:26:22.345Z,12.55
2023-02-09T17:28:51.318Z,11.57
2023-02-09T17:31:23.254Z,11.60
2023-02-09T17:33:54.928Z,10.93
2023-02-09T17:36:27.464Z,11.15
2023-02-09T17:38:58.548Z,11.40
2023-02-09T17:41:32.354Z,11.57
2023-02-09T17:44:22.320Z,10.27
2023-02-09T17:46:55.405Z,12.10
2023-02-09T17:49:25.362Z,11.63
2023-02-09T17:51:54.046Z,12.68
2023-02-09T17:54:22.494Z,11.52
2023-02-09T17:56:51.037Z,12.20
2023-02-09T17:59:21.192Z,11.57
2023-02-09T18:01:50.670Z,11.95
2023-02-09T18:04:22.181Z,11.43
2023-02-09T18:06:53.187Z,10.23
2023-02-09T18:09:24.900Z,12.80
2023-02-09T18:11:59.712Z,11.45
2023-02-09T18:14:29.503Z,11.15
2023-02-09T18:16:58.421Z,11.43
2023-02-09T18:19:27.151Z,10.80
2023-02-09T18:21:58.783Z,10.07
2023-02-09T18:24:30.645Z,11.05
2023-02-09T18:26:59.679Z,11.50
2023-02-09T18:29:30.252Z,11.95
2023-02-09T18:31:59.600Z,12.77
2023-02-09T18:34:29.126Z,12.73
2023-02-09T18:36:58.947Z,12.02
2023-02-09T18:39:27.638Z,12.65
2023-02-09T18:41:55.972Z,14.70
2023-02-09T18:44:29.174Z,12.38
2023-02-09T18:47:00.291Z,13.70
2023-02-09T18:49:29.524Z,12.75
2023-02-09T18:51:59.401Z,12.30
2023-02-09T18:54:29.152Z,14.68
2023-02-09T18:56:58.030Z,14.20
2023-02-09T18:59:29.400Z,14.93
2023-02-09T19:01:58.514Z,14.05
2023-02-09T19:04:27.852Z,12.38
2023-02-09T19:06:56.829Z,13.48
2023-02-09T19:09:27.022Z,15.38
2023-02-09T19:11:55.741Z,13.60
2023-02-09T19:14:41.669Z,14.27
2023-02-09T19:17:17.180Z,14.23
2023-02-09T19:19:50.129Z,13.63
2023-02-09T19:22:21.887Z,14.13
2023-02-09T19:24:55.570Z,14.35
2023-02-09T19:27:26.777Z,15.32
2023-02-09T19:29:57.193Z,14.55
2023-02-09T19:32:27.277Z,14.70
2023-02-09T19:34:56.393Z,14.65
2023-02-09T19:37:25.412Z,15.85
2023-02-09T19:40:04.254Z,15.55
2023-02-09T19:42:33.961Z,16.52
2023-02-09T19:45:09.645Z,14.80
2023-02-09T19:47:39.453Z,15.52
2023-02-09T19:50:08.211Z,17.33
2023-02-09T19:52:38.470Z,15.90
2023-02-09T19:55:10.965Z,16.55
2023-02-09T19:57:41.502Z,17.17
2023-02-09T20:00:15.707Z,16.38
2023-02-09T20:02:45.421Z,16.02
2023-02-09T20:05:14.713Z,15.40
2023-02-09T20:07:48.799Z,16.20
2023-02-09T20:10:19.544Z,17.23
2023-02-09T20:12:48.355Z,16.85
2023-02-09T20:15:17.520Z,17.65
2023-02-09T20:20:15.913Z,18.85
2023-02-09T20:22:44.588Z,17.13
2023-02-09T20:25:14.326Z,18.05
2023-02-09T20:27:45.540Z,18.77
2023-02-09T20:30:16.212Z,18.95
2023-02-09T20:32:46.257Z,20.23
2023-02-09T20:35:15.585Z,19.08
2023-02-09T20:37:44.756Z,19.13
2023-02-09T20:40:13.769Z,19.23
2023-02-09T20:43:01.231Z,20.55
2023-02-09T20:45:47.593Z,20.52
2023-02-09T20:48:17.379Z,20.58
2023-02-09T20:50:46.458Z,19.40
2023-02-09T20:53:15.095Z,22.20
2023-02-09T20:55:43.949Z,20.23
2023-02-09T20:58:14.503Z,21.40
2023-02-09T21:00:44.329Z,20.98
2023-02-09T21:03:13.200Z,22.20
2023-02-09T21:05:42.270Z,20.85
2023-02-09T21:08:11.489Z,20.58
2023-02-09T21:10:40.389Z,20.52
2023-02-09T21:13:10.846Z,22.13
2023-02-09T21:15:43.953Z,21.02
2023-02-09T21:18:13.307Z,22.00
2023-02-09T21:20:42.398Z,21.83
2023-02-09T21:23:11.344Z,22.27
2023-02-09T21:25:39.833Z,22.70
2023-02-09T21:28:08.418Z,21.73
2023-02-09T21:30:37.629Z,23.20
2023-02-09T21:33:07.943Z,22.83
2023-02-09T21:35:40.702Z,21.95
2023-02-09T21:38:09.514Z,21.80
2023-02-09T21:40:38.789Z,22.98
2023-02-09T21:43:07.451Z,23.45
2023-02-09T21:45:39.000Z,22.65
2023-02-09T21:48:09.260Z,22.95
2023-02-09T21:50:37.635Z,22.08
2023-02-09T21:53:06.112Z,22.45
2023-02-09T21:55:34.940Z,23.45
2023-02-09T21:58:03.366Z,24.05
2023-02-09T22:00:32.296Z,23.67
2023-02-09T22:03:01.399Z,23.35
2023-02-09T22:05:31.157Z,23.17
2023-02-09T22:07:59.505Z,23.98
2023-02-09T22:10:28.616Z,22.60
2023-02-09T22:12:57.190Z,23.35
2023-02-09T22:15:25.576Z,24.92
2023-02-09T22:17:53.916Z,24.35
2023-02-09T22:20:22.405Z,24.73
2023-02-09T22:22:52.092Z,23.48
2023-02-09T22:25:22.568Z,23.33
2023-02-09T22:27:50.941Z,23.73
2023-02-09T22:30:19.393Z,25.88
2023-02-09T22:32:47.800Z,24.23
2023-02-09T22:35:16.508Z,22.92
2023-02-09T22:37:45.050Z,25.13
2023-02-09T22:40:14.773Z,25.10
2023-02-09T22:42:43.187Z,23.83
2023-02-09T22:45:11.649Z,25.55
2023-02-09T22:47:40.144Z,25.77
2023-02-09T22:50:09.242Z,24.88
2023-02-09T22:52:37.652Z,27.83
2023-02-09T22:55:06.689Z,25.83
2023-02-09T22:57:36.555Z,24.88
2023-02-09T23:00:07.480Z,25.33
2023-02-09T23:02:36.080Z,25.00
2023-02-09T23:05:04.847Z,25.10
2023-02-09T23:07:33.344Z,25.90
2023-02-09T23:10:01.715Z,25.90
2023-02-09T23:12:30.070Z,26.90
2023-02-09T23:14:59.864Z,26.27
2023-02-09T23:17:28.437Z,25.90
2023-02-09T23:19:56.864Z,25.17
2023-02-09T23:22:25.229Z,25.00
2023-02-09T23:24:55.033Z,25.45
2023-02-09T23:27:23.425Z,25.00
2023-02-09T23:29:51.913Z,26.02
2023-02-09T23:32:21.673Z,26.92
2023-02-09T23:34:50.079Z,25.58
2023-02-09T23:37:28.722Z,26.48
2023-02-09T23:40:05.225Z,27.30
2023-02-09T23:42:34.010Z,26.85
2023-02-09T23:45:02.387Z,25.63
2023-02-09T23:47:32.104Z,26.08
2023-02-09T23:50:00.501Z,27.13
2023-02-09T23:52:29.042Z,26.38
2023-02-09T23:54:57.699Z,28.33
2023-02-09T23:57:26.339Z,26.73
2023-02-09T23:59:54.713Z,27.40
